Pirituba, Brazil
Current Conditions -  °F | °C
As of 6:00 PM on Monday 26 Jan 2015 (Local Time) from SBSP Reporting Station
Broken Clouds Broken Clouds  
Wind Chill: 81°   Ceiling: 4500
Heat Index: 82°   Visibility: 6mi
Dew Point: 64°   Wind: 12mph
Humidity: 58%   Direction: 110°ESE
Pressure: 29.97"   Gusts: NA
Location:  23.63°S, 47.35°W
Report Text: SBSP 262000Z 11010KT 9999 BKN045 27/18 Q1015 RETS
Loading
Personal Weather Stations






























Interactive Weather Map New forecast layout! Learn more

10-Day Weather Forecast

Advertisements
Track Severe Weather on mobile